Terminal Aerodrome Forecast
Issued by NWS Twin Cities, MN

Home | Current Version | Previous Version | Text Only | Print | Product List | Glossary Off
Versions: 1 2 3 4 5 6 7 8 9 10 11 12 13 14 15 16 17

000
FTUS43 KMPX 210910 AAA
TAFEAU
TAF AMD
KEAU 210910Z 2109/2206 VRB04KT 3SM BR SCT001
      TEMPO 2109/2113 1/2SM FG VV001
     FM211300 VRB03KT P6SM FEW200
     FM211600 16009KT P6SM SCT100 BKN200
     FM220000 14007KT P6SM OVC050 PROB30 2203/2206 5SM -TSRA
      BKN035CB=

USA.gov is the U.S. government's official web portal to all federal, state and local government web resources and services.